createdAt,value
2017-10-06T00:00:33.158Z,1.97
2017-10-06T00:03:19.966Z,1.87
2017-10-06T00:06:23.752Z,2.07
2017-10-06T00:08:56.404Z,1.67
2017-10-06T00:12:31.480Z,1.90
2017-10-06T00:15:05.436Z,1.70
2017-10-06T00:17:40.116Z,1.97
2017-10-06T00:20:12.887Z,1.60
2017-10-06T00:22:45.402Z,1.70
2017-10-06T00:25:17.903Z,1.60
2017-10-06T00:27:49.112Z,1.77
2017-10-06T00:30:23.733Z,1.57
2017-10-06T00:32:59.413Z,2.00
2017-10-06T00:35:31.452Z,1.90
2017-10-06T00:38:04.906Z,1.87
2017-10-06T00:40:41.424Z,1.80
2017-10-06T00:43:20.804Z,2.07
2017-10-06T00:45:57.086Z,1.60
2017-10-06T00:48:28.352Z,2.30
2017-10-06T00:51:00.453Z,2.03
2017-10-06T00:53:40.888Z,2.00
2017-10-06T00:56:11.928Z,1.57
2017-10-06T00:58:43.045Z,2.23
2017-10-06T01:01:18.437Z,1.93
2017-10-06T01:03:52.526Z,2.20
2017-10-06T01:06:25.162Z,2.03
2017-10-06T01:09:04.678Z,1.83
2017-10-06T01:11:38.992Z,2.10
2017-10-06T01:14:09.810Z,1.97
2017-10-06T01:16:45.242Z,2.10
2017-10-06T01:19:17.504Z,2.53
2017-10-06T01:22:19.628Z,1.63
2017-10-06T01:24:52.699Z,2.57
2017-10-06T01:27:26.884Z,1.83
2017-10-06T01:30:13.253Z,2.10
2017-10-06T01:32:45.005Z,2.40
2017-10-06T01:35:17.683Z,2.83
2017-10-06T01:37:50.320Z,1.80
2017-10-06T01:40:21.300Z,2.80
2017-10-06T01:42:56.365Z,2.23
2017-10-06T01:45:31.498Z,1.73
2017-10-06T01:48:10.032Z,2.00
2017-10-06T01:50:41.801Z,1.90
2017-10-06T01:53:12.775Z,2.23
2017-10-06T01:55:45.693Z,1.60
2017-10-06T01:58:18.430Z,3.40
2017-10-06T02:00:49.248Z,1.97
2017-10-06T02:03:37.661Z,1.73
2017-10-06T02:06:10.625Z,2.07
2017-10-06T02:08:42.222Z,1.77
2017-10-06T02:11:12.951Z,2.33
2017-10-06T02:14:38.896Z,2.10
2017-10-06T02:17:10.782Z,2.80
2017-10-06T02:19:42.370Z,2.20
2017-10-06T02:22:16.430Z,1.83
2017-10-06T02:24:51.449Z,1.97
2017-10-06T02:27:23.587Z,2.30
2017-10-06T02:30:06.134Z,1.93
2017-10-06T02:32:36.864Z,2.17
2017-10-06T02:35:07.718Z,2.60
2017-10-06T02:37:38.475Z,1.90
2017-10-06T02:40:09.906Z,2.67
2017-10-06T02:42:41.192Z,2.00
2017-10-06T02:45:12.786Z,1.70
2017-10-06T02:47:44.312Z,2.13
2017-10-06T02:50:15.290Z,1.93
2017-10-06T02:52:46.284Z,1.47
2017-10-06T02:55:16.964Z,2.10
2017-10-06T02:57:54.402Z,1.80
2017-10-06T03:00:25.846Z,1.73
2017-10-06T03:03:00.264Z,1.90
2017-10-06T03:05:39.248Z,1.60
2017-10-06T03:08:12.630Z,1.80
2017-10-06T03:10:52.786Z,1.57
2017-10-06T03:13:32.700Z,1.50
2017-10-06T03:19:16.940Z,2.03
2017-10-06T03:21:49.633Z,1.50
2017-10-06T03:24:23.911Z,1.97
2017-10-06T03:26:55.214Z,1.67
2017-10-06T03:29:27.378Z,1.47
2017-10-06T03:32:00.100Z,1.90
2017-10-06T03:34:33.698Z,1.47
2017-10-06T03:37:10.414Z,1.90
2017-10-06T03:39:45.269Z,1.50
2017-10-06T03:42:23.743Z,1.90
2017-10-06T03:45:08.152Z,1.53
2017-10-06T03:47:53.356Z,1.87
2017-10-06T03:50:24.457Z,1.83
2017-10-06T03:56:03.956Z,1.70
2017-10-06T03:58:36.303Z,1.80
2017-10-06T04:01:12.286Z,1.77
2017-10-06T04:03:43.446Z,1.90
2017-10-06T04:06:22.283Z,2.43
2017-10-06T04:09:03.781Z,1.83
2017-10-06T04:11:34.485Z,1.80
2017-10-06T04:14:07.591Z,3.00
2017-10-06T04:16:42.005Z,2.10
2017-10-06T04:21:58.916Z,2.10
2017-10-06T04:24:29.582Z,2.00
2017-10-06T04:27:01.401Z,2.43
2017-10-06T04:29:32.229Z,2.40
2017-10-06T04:32:03.811Z,2.20
2017-10-06T04:34:36.959Z,1.90
2017-10-06T04:37:07.765Z,1.70
2017-10-06T04:39:38.513Z,2.23
2017-10-06T04:42:09.710Z,2.27
2017-10-06T04:44:41.774Z,1.57
2017-10-06T04:47:15.533Z,2.63
2017-10-06T04:49:48.354Z,2.40
2017-10-06T04:52:20.945Z,2.00
2017-10-06T04:54:55.306Z,2.47
2017-10-06T04:57:28.228Z,2.20
2017-10-06T05:00:01.439Z,2.07
2017-10-06T05:02:33.176Z,1.90
2017-10-06T05:05:03.681Z,2.00
2017-10-06T05:07:36.759Z,2.17
2017-10-06T05:10:07.444Z,1.97
2017-10-06T05:12:38.675Z,2.40
2017-10-06T05:15:09.661Z,2.10
2017-10-06T05:17:41.188Z,2.00
2017-10-06T05:20:12.013Z,2.60
2017-10-06T05:22:44.270Z,1.93
2017-10-06T05:25:15.530Z,2.53
2017-10-06T05:27:48.817Z,1.90
2017-10-06T05:30:20.936Z,2.27
2017-10-06T05:32:51.341Z,2.07
2017-10-06T05:35:23.104Z,2.57
2017-10-06T05:37:55.232Z,3.10
2017-10-06T05:40:26.479Z,2.90
2017-10-06T05:42:57.758Z,2.43
2017-10-06T05:45:28.872Z,2.20
2017-10-06T05:48:00.117Z,1.80
2017-10-06T05:50:34.007Z,2.73
2017-10-06T05:53:06.776Z,4.10
2017-10-06T05:55:39.541Z,4.67
2017-10-06T05:58:10.238Z,2.80
2017-10-06T06:00:41.239Z,2.40
2017-10-06T06:03:14.141Z,2.70
2017-10-06T06:05:48.071Z,2.10
2017-10-06T06:08:20.877Z,2.80
2017-10-06T06:10:52.463Z,2.00
2017-10-06T06:13:26.818Z,2.13
2017-10-06T06:15:59.246Z,2.57
2017-10-06T06:18:30.429Z,2.90
2017-10-06T06:21:01.265Z,3.80
2017-10-06T06:23:33.051Z,2.20
2017-10-06T06:26:04.145Z,2.60
2017-10-06T06:28:36.171Z,2.67
2017-10-06T06:31:07.016Z,2.63
2017-10-06T06:33:52.584Z,2.60
2017-10-06T06:36:27.101Z,2.03
2017-10-06T06:38:58.191Z,2.10
2017-10-06T06:41:31.823Z,1.97
2017-10-06T06:44:03.064Z,1.93
2017-10-06T06:46:33.965Z,1.80
2017-10-06T06:49:06.560Z,1.93
2017-10-06T06:51:39.458Z,1.83
2017-10-06T06:54:10.427Z,2.33
2017-10-06T06:56:41.813Z,2.07
2017-10-06T06:59:12.839Z,2.20
2017-10-06T07:01:45.123Z,2.00
2017-10-06T07:04:17.229Z,2.33
2017-10-06T07:06:49.799Z,1.87
2017-10-06T07:09:25.002Z,2.50
2017-10-06T07:11:56.953Z,2.03
2017-10-06T07:14:28.845Z,2.07
2017-10-06T07:17:02.033Z,2.23
2017-10-06T07:19:39.686Z,2.50
2017-10-06T07:22:11.135Z,2.07
2017-10-06T07:24:41.908Z,2.00
2017-10-06T07:27:13.611Z,2.50
2017-10-06T07:29:44.490Z,2.20
2017-10-06T07:32:20.163Z,1.97
2017-10-06T07:34:51.303Z,2.00
2017-10-06T07:37:24.128Z,2.27
2017-10-06T07:39:55.272Z,2.47
2017-10-06T07:42:38.855Z,3.13
2017-10-06T07:45:17.970Z,2.10
2017-10-06T07:47:48.638Z,2.57
2017-10-06T07:50:20.198Z,2.50
2017-10-06T07:52:51.354Z,2.90
2017-10-06T07:55:23.885Z,2.70
2017-10-06T07:58:01.511Z,2.50
2017-10-06T08:00:33.215Z,2.33
2017-10-06T08:05:53.574Z,2.20
2017-10-06T08:08:25.198Z,2.10
2017-10-06T08:11:01.154Z,2.17
2017-10-06T08:13:33.054Z,1.90
2017-10-06T08:16:03.722Z,1.83
2017-10-06T08:18:34.275Z,1.90
2017-10-06T08:21:04.950Z,1.80
2017-10-06T08:23:48.973Z,2.33
2017-10-06T08:26:21.110Z,2.10
2017-10-06T08:28:57.080Z,1.80
2017-10-06T08:31:29.877Z,1.80
2017-10-06T08:34:03.191Z,2.20
2017-10-06T08:36:37.102Z,2.10
2017-10-06T08:39:14.076Z,2.23
2017-10-06T08:41:48.671Z,1.60
2017-10-06T08:44:21.238Z,2.30
2017-10-06T08:47:13.157Z,2.50
2017-10-06T08:49:47.744Z,2.50
2017-10-06T08:55:24.166Z,2.30
2017-10-06T08:58:03.632Z,3.37
2017-10-06T09:00:34.597Z,2.90
2017-10-06T09:03:07.577Z,2.80
2017-10-06T09:05:41.410Z,2.60
2017-10-06T09:08:13.533Z,2.30
2017-10-06T09:10:45.766Z,2.67
2017-10-06T09:13:17.103Z,2.57
2017-10-06T09:16:02.965Z,3.17
2017-10-06T09:18:33.559Z,3.00
2017-10-06T09:21:05.473Z,2.97
2017-10-06T09:26:26.210Z,3.17
2017-10-06T09:28:57.001Z,2.93
2017-10-06T09:31:27.882Z,3.33
2017-10-06T09:33:59.901Z,2.70
2017-10-06T09:36:31.876Z,2.90
2017-10-06T09:39:08.123Z,3.37
2017-10-06T09:41:39.476Z,3.30
2017-10-06T09:44:09.796Z,3.50
2017-10-06T09:46:49.747Z,3.33
2017-10-06T09:49:20.279Z,3.00
2017-10-06T09:51:52.629Z,2.60
2017-10-06T09:54:24.173Z,3.97
2017-10-06T09:56:55.570Z,2.20
2017-10-06T10:00:05.687Z,2.57
2017-10-06T10:02:37.872Z,3.00
2017-10-06T10:05:08.772Z,3.33
2017-10-06T10:07:39.588Z,3.00
2017-10-06T10:10:10.997Z,3.80
2017-10-06T10:12:48.662Z,3.77
2017-10-06T10:15:40.530Z,4.60
2017-10-06T10:21:27.134Z,3.10
2017-10-06T10:24:00.701Z,4.83
2017-10-06T10:26:31.572Z,3.73
2017-10-06T10:29:08.537Z,2.63
2017-10-06T10:31:43.523Z,2.17
2017-10-06T10:34:14.918Z,3.17
2017-10-06T10:36:47.769Z,2.30
2017-10-06T10:39:18.331Z,2.90
2017-10-06T10:41:48.935Z,3.50
2017-10-06T10:44:19.490Z,2.90
2017-10-06T10:46:50.817Z,2.40
2017-10-06T10:49:21.591Z,2.43
2017-10-06T10:51:53.100Z,2.80
2017-10-06T10:54:24.584Z,2.57
2017-10-06T10:56:56.000Z,2.60
2017-10-06T10:59:26.703Z,2.40
2017-10-06T11:01:57.871Z,2.10
2017-10-06T11:04:28.963Z,3.00
2017-10-06T11:06:59.777Z,3.23
2017-10-06T11:09:38.255Z,2.83
2017-10-06T11:12:10.471Z,2.90
2017-10-06T11:14:41.055Z,3.43
2017-10-06T11:17:11.946Z,3.20
2017-10-06T11:19:42.615Z,2.93
2017-10-06T11:22:13.439Z,2.40
2017-10-06T11:24:46.695Z,2.20
2017-10-06T11:27:17.347Z,2.30
2017-10-06T11:29:49.002Z,1.83
2017-10-06T11:32:20.462Z,1.90
2017-10-06T11:34:54.238Z,1.97
2017-10-06T11:37:25.029Z,1.53
2017-10-06T11:39:55.470Z,1.70
2017-10-06T11:42:26.118Z,2.20
2017-10-06T11:44:57.009Z,1.77
2017-10-06T11:47:27.593Z,1.60
2017-10-06T11:49:58.358Z,1.60
2017-10-06T11:52:29.355Z,1.77
2017-10-06T11:55:00.431Z,1.90
2017-10-06T11:57:31.321Z,1.63
2017-10-06T12:00:01.782Z,1.90
2017-10-06T12:02:32.218Z,1.93
2017-10-06T12:05:02.674Z,1.50
2017-10-06T12:07:34.008Z,1.30
2017-10-06T12:10:05.250Z,1.43
2017-10-06T12:12:36.094Z,2.00
2017-10-06T12:15:06.757Z,1.60
2017-10-06T12:17:37.262Z,1.90
2017-10-06T12:20:07.673Z,1.63
2017-10-06T12:22:38.694Z,2.20
2017-10-06T12:25:09.442Z,1.87
2017-10-06T12:27:39.938Z,1.80
2017-10-06T12:30:10.449Z,2.53
2017-10-06T12:32:41.082Z,1.70
2017-10-06T12:35:12.649Z,1.80
2017-10-06T12:37:43.905Z,1.90
2017-10-06T12:40:14.471Z,2.10
2017-10-06T12:42:45.269Z,1.87
2017-10-06T12:45:15.695Z,2.33
2017-10-06T12:47:46.109Z,2.10
2017-10-06T12:50:16.756Z,1.70
2017-10-06T12:52:47.251Z,2.30
2017-10-06T12:55:18.528Z,2.10
2017-10-06T12:57:49.694Z,1.90
2017-10-06T13:00:20.728Z,1.80
2017-10-06T13:02:51.256Z,2.07
2017-10-06T13:05:21.994Z,2.17
2017-10-06T13:07:52.451Z,1.90
2017-10-06T13:10:23.466Z,2.10
2017-10-06T13:12:54.298Z,1.40
2017-10-06T13:15:24.861Z,1.83
2017-10-06T13:17:55.606Z,1.60
2017-10-06T13:20:27.423Z,1.90
2017-10-06T13:22:58.752Z,2.23
2017-10-06T13:25:29.248Z,2.27
2017-10-06T13:27:59.727Z,2.07
2017-10-06T13:30:30.261Z,2.10
2017-10-06T13:33:00.604Z,1.63
2017-10-06T13:35:31.252Z,2.17
2017-10-06T13:38:01.671Z,1.87
2017-10-06T13:40:32.198Z,1.73
2017-10-06T13:43:02.782Z,1.77
2017-10-06T13:45:34.142Z,1.70
2017-10-06T13:48:04.542Z,1.90
2017-10-06T13:50:34.941Z,1.90
2017-10-06T13:53:05.210Z,1.40
2017-10-06T13:55:37.229Z,1.93
2017-10-06T13:58:07.617Z,2.30
2017-10-06T14:00:38.247Z,2.20
2017-10-06T14:03:09.157Z,1.70
2017-10-06T14:05:40.381Z,1.70
2017-10-06T14:08:10.916Z,1.97
2017-10-06T14:10:43.072Z,1.60
2017-10-06T14:13:14.531Z,2.10
2017-10-06T14:15:44.973Z,2.00
2017-10-06T14:18:15.362Z,1.90
2017-10-06T14:20:46.155Z,2.07
2017-10-06T14:23:16.977Z,1.60
2017-10-06T14:25:48.278Z,2.27
2017-10-06T14:28:18.808Z,1.70
2017-10-06T14:30:49.606Z,1.67
2017-10-06T14:33:20.309Z,2.00
2017-10-06T14:35:51.223Z,2.20
2017-10-06T14:38:22.105Z,2.00
2017-10-06T14:40:53.657Z,2.00
2017-10-06T14:43:24.475Z,1.47
2017-10-06T14:45:55.113Z,1.57
2017-10-06T14:48:25.668Z,2.10
2017-10-06T14:50:56.193Z,2.10
2017-10-06T14:53:26.719Z,1.87
2017-10-06T14:55:57.505Z,1.70
2017-10-06T14:58:28.092Z,2.23
2017-10-06T15:00:58.789Z,1.80
2017-10-06T15:03:29.225Z,1.40
2017-10-06T15:06:02.817Z,2.10
2017-10-06T15:08:33.740Z,1.70
2017-10-06T15:11:04.312Z,1.90
2017-10-06T15:13:35.056Z,3.03
2017-10-06T15:16:05.729Z,2.30
2017-10-06T15:18:36.274Z,2.37
2017-10-06T15:21:07.133Z,2.37
2017-10-06T15:23:37.828Z,2.40
2017-10-06T15:26:08.358Z,2.40
2017-10-06T15:28:38.629Z,2.30
2017-10-06T15:31:10.158Z,2.47
2017-10-06T15:33:41.021Z,2.23
2017-10-06T15:36:11.601Z,2.90
2017-10-06T15:38:44.676Z,2.43
2017-10-06T15:41:15.029Z,2.23
2017-10-06T15:43:45.903Z,2.80
2017-10-06T15:46:20.186Z,2.10
2017-10-06T15:48:50.593Z,2.97
2017-10-06T15:51:21.175Z,2.50
2017-10-06T15:53:51.505Z,3.13
2017-10-06T15:56:21.945Z,2.63
2017-10-06T15:58:52.593Z,2.73
2017-10-06T16:01:23.691Z,2.70
2017-10-06T16:03:54.117Z,2.87
2017-10-06T16:06:26.021Z,2.90
2017-10-06T16:08:56.617Z,2.20
2017-10-06T16:11:27.122Z,2.80
2017-10-06T16:13:57.537Z,2.43
2017-10-06T16:16:30.218Z,2.33
2017-10-06T16:19:00.547Z,2.63
2017-10-06T16:21:30.938Z,2.40
2017-10-06T16:24:02.185Z,3.90
2017-10-06T16:26:32.372Z,2.47
2017-10-06T16:29:02.819Z,3.07
2017-10-06T16:31:33.857Z,2.80
2017-10-06T16:34:04.393Z,2.30
2017-10-06T16:36:35.528Z,2.27
2017-10-06T16:39:07.027Z,2.10
2017-10-06T16:41:37.682Z,2.73
2017-10-06T16:44:09.333Z,2.10
2017-10-06T16:46:40.174Z,2.47
2017-10-06T16:49:10.427Z,2.23
2017-10-06T16:51:42.117Z,2.47
2017-10-06T16:54:13.016Z,3.13
2017-10-06T16:56:43.709Z,2.73
2017-10-06T16:59:14.878Z,2.30
2017-10-06T17:01:45.153Z,2.33
2017-10-06T17:04:18.907Z,2.57
2017-10-06T17:06:50.541Z,2.23
2017-10-06T17:09:21.067Z,2.30
2017-10-06T17:11:52.098Z,3.73
2017-10-06T17:14:22.545Z,2.90
2017-10-06T17:16:53.989Z,2.80
2017-10-06T17:19:24.472Z,2.53
2017-10-06T17:21:56.199Z,2.20
2017-10-06T17:24:27.063Z,2.50
2017-10-06T17:26:57.508Z,2.60
2017-10-06T17:29:29.781Z,2.70
2017-10-06T17:32:01.617Z,2.77
2017-10-06T17:34:32.914Z,2.90
2017-10-06T17:37:03.488Z,2.73
2017-10-06T17:39:35.183Z,2.77
2017-10-06T17:42:06.193Z,2.60
2017-10-06T17:44:37.600Z,2.37
2017-10-06T17:47:08.873Z,3.00
2017-10-06T17:49:39.512Z,2.70
2017-10-06T17:52:10.187Z,2.80
2017-10-06T17:54:40.646Z,2.97
2017-10-06T17:57:12.244Z,2.93
2017-10-06T17:59:42.609Z,3.60
2017-10-06T18:02:13.226Z,3.33
2017-10-06T18:04:45.766Z,3.17
2017-10-06T18:07:16.831Z,3.00
2017-10-06T18:09:47.676Z,2.63
2017-10-06T18:12:18.276Z,3.33
2017-10-06T18:14:49.944Z,2.60
2017-10-06T18:17:21.535Z,3.27
2017-10-06T18:19:53.646Z,3.20
2017-10-06T18:22:24.135Z,2.50
2017-10-06T18:24:56.996Z,3.23
2017-10-06T18:27:28.118Z,2.90
2017-10-06T18:30:00.371Z,3.73
2017-10-06T18:32:31.170Z,2.90
2017-10-06T18:35:02.027Z,3.20
2017-10-06T18:37:33.133Z,3.23
2017-10-06T18:40:04.013Z,3.10
2017-10-06T18:42:34.568Z,3.30
2017-10-06T18:45:05.447Z,3.33
2017-10-06T18:47:36.325Z,3.30
2017-10-06T18:50:06.685Z,2.50
2017-10-06T18:52:37.696Z,3.60
2017-10-06T18:55:11.567Z,3.47
2017-10-06T18:57:43.321Z,3.70
2017-10-06T19:00:15.091Z,3.00
2017-10-06T19:02:46.066Z,4.77
2017-10-06T19:05:17.613Z,4.40
2017-10-06T19:07:50.667Z,3.03
2017-10-06T19:10:23.447Z,3.90
2017-10-06T19:12:57.884Z,3.23
2017-10-06T19:15:30.054Z,3.03
2017-10-06T19:18:03.278Z,3.00
2017-10-06T19:20:37.586Z,3.70
2017-10-06T19:23:09.521Z,2.70
2017-10-06T19:25:43.140Z,2.77
2017-10-06T19:28:13.663Z,4.50
2017-10-06T19:30:46.994Z,3.13
2017-10-06T19:33:19.918Z,3.33
2017-10-06T19:35:52.322Z,3.70
2017-10-06T19:38:23.859Z,3.77
2017-10-06T19:40:57.113Z,3.57
2017-10-06T19:43:28.690Z,3.60
2017-10-06T19:46:00.110Z,3.27
2017-10-06T19:48:33.392Z,3.57
2017-10-06T19:51:08.192Z,3.30
2017-10-06T19:53:44.049Z,4.23
2017-10-06T19:56:16.337Z,4.13
2017-10-06T19:58:49.576Z,3.03
2017-10-06T20:01:23.138Z,3.53
2017-10-06T20:04:00.629Z,4.27
2017-10-06T20:06:32.112Z,4.30
2017-10-06T20:09:03.419Z,4.30
2017-10-06T20:11:37.815Z,3.43
2017-10-06T20:14:10.461Z,4.07
2017-10-06T20:16:42.152Z,4.30
2017-10-06T20:19:13.260Z,4.80
2017-10-06T20:21:44.538Z,3.60
2017-10-06T20:24:17.672Z,3.70
2017-10-06T20:26:50.442Z,4.57
2017-10-06T20:29:23.617Z,3.03
2017-10-06T20:32:08.186Z,4.07
2017-10-06T20:34:45.532Z,4.70
2017-10-06T20:37:15.957Z,3.60
2017-10-06T20:39:47.634Z,3.53
2017-10-06T20:42:19.942Z,3.20
2017-10-06T20:44:51.638Z,3.30
2017-10-06T20:47:22.174Z,3.73
2017-10-06T20:49:56.276Z,4.97
2017-10-06T20:52:27.361Z,2.97
2017-10-06T20:54:57.842Z,3.40
2017-10-06T20:57:29.978Z,2.63
2017-10-06T21:00:03.683Z,4.40
2017-10-06T21:02:34.377Z,3.13
2017-10-06T21:05:04.881Z,3.47
2017-10-06T21:07:36.552Z,3.73
2017-10-06T21:10:07.996Z,3.80
2017-10-06T21:12:40.966Z,3.43
2017-10-06T21:15:13.841Z,3.80
2017-10-06T21:17:44.229Z,4.30
2017-10-06T21:20:17.424Z,3.70
2017-10-06T21:22:48.077Z,3.63
2017-10-06T21:25:19.305Z,3.53
2017-10-06T21:27:52.451Z,3.30
2017-10-06T21:30:26.194Z,2.43
2017-10-06T21:32:56.854Z,2.80
2017-10-06T21:35:28.791Z,3.27
2017-10-06T21:38:00.537Z,2.83
2017-10-06T21:40:30.839Z,3.83
2017-10-06T21:43:03.627Z,3.70
2017-10-06T21:45:34.899Z,2.90
2017-10-06T21:48:10.787Z,2.60
2017-10-06T21:50:41.952Z,2.43
2017-10-06T21:53:12.370Z,2.47
2017-10-06T21:55:43.097Z,2.33
2017-10-06T21:58:14.444Z,2.50
2017-10-06T22:00:44.797Z,2.80
2017-10-06T22:03:17.607Z,2.70
2017-10-06T22:05:48.929Z,2.27
2017-10-06T22:08:20.413Z,2.63
2017-10-06T22:10:52.266Z,3.23
2017-10-06T22:13:25.249Z,3.87
2017-10-06T22:15:56.105Z,2.70
2017-10-06T22:18:28.433Z,2.90
2017-10-06T22:21:00.465Z,3.50
2017-10-06T22:24:07.497Z,2.70
2017-10-06T22:26:58.325Z,3.10
2017-10-06T22:29:34.183Z,3.03
2017-10-06T22:32:04.693Z,2.77
2017-10-06T22:34:36.109Z,2.43
2017-10-06T22:37:06.977Z,2.80
2017-10-06T22:39:40.030Z,3.00
2017-10-06T22:42:14.720Z,2.90
2017-10-06T22:44:46.531Z,2.90
2017-10-06T22:47:18.668Z,2.40
2017-10-06T22:49:48.954Z,3.23
2017-10-06T22:52:22.173Z,2.93
2017-10-06T22:54:54.162Z,2.60
2017-10-06T22:57:25.217Z,2.77
2017-10-06T22:59:56.808Z,2.83
2017-10-06T23:05:32.112Z,2.50
2017-10-06T23:08:03.631Z,2.37
2017-10-06T23:10:36.016Z,2.77
2017-10-06T23:13:08.124Z,2.60
2017-10-06T23:15:38.522Z,2.60
2017-10-06T23:18:09.085Z,2.20
2017-10-06T23:20:39.464Z,2.10
2017-10-06T23:23:13.772Z,2.30
2017-10-06T23:25:44.079Z,2.40
2017-10-06T23:28:15.078Z,2.40
2017-10-06T23:30:45.344Z,2.47
2017-10-06T23:33:15.602Z,2.10
2017-10-06T23:35:50.741Z,3.07
2017-10-06T23:38:21.053Z,2.33
2017-10-06T23:40:51.480Z,2.70
2017-10-06T23:43:22.704Z,2.77
2017-10-06T23:45:53.225Z,2.37
2017-10-06T23:48:24.474Z,2.73
2017-10-06T23:50:55.266Z,2.37
2017-10-06T23:53:31.544Z,2.60
2017-10-06T23:56:05.847Z,2.20
2017-10-06T23:58:36.210Z,3.30
